sensor_id;sensor_type;location;lat;lon;timestamp;pressure;altitude;pressure_sealevel;temperature;humidity
28456;BME280;15682;56.742;38.866;2022-11-20T00:00:28;99870.0;;;-6.1;93.7
28456;BME280;15682;56.742;38.866;2022-11-20T00:02:28;99870.0;;;-6.1;93.7
28456;BME280;15682;56.742;38.866;2022-11-20T00:04:28;99870.0;;;-6.1;93.7
28456;BME280;15682;56.742;38.866;2022-11-20T00:06:30;99870.0;;;-6.1;93.7
28456;BME280;15682;56.742;38.866;2022-11-20T00:08:28;99870.0;;;-5.9;93.1
28456;BME280;15682;56.742;38.866;2022-11-20T00:10:27;99870.0;;;-5.9;93.1
28456;BME280;15682;56.742;38.866;2022-11-20T00:12:27;99870.0;;;-5.9;93.1
28456;BME280;15682;56.742;38.866;2022-11-20T00:14:27;99870.0;;;-5.9;93.1
28456;BME280;15682;56.742;38.866;2022-11-20T00:16:29;99870.0;;;-5.9;93.8
28456;BME280;15682;56.742;38.866;2022-11-20T00:18:27;99870.0;;;-6.1;93.0
28456;BME280;15682;56.742;38.866;2022-11-20T00:20:26;99870.0;;;-6.1;93.0
28456;BME280;15682;56.742;38.866;2022-11-20T00:22:26;99870.0;;;-6.1;93.0
28456;BME280;15682;56.742;38.866;2022-11-20T00:24:26;99870.0;;;-6.1;93.0
28456;BME280;15682;56.742;38.866;2022-11-20T00:26:27;99870.0;;;-6.1;93.0
28456;BME280;15682;56.742;38.866;2022-11-20T00:28:25;99870.0;;;-6.2;93.1
28456;BME280;15682;56.742;38.866;2022-11-20T00:30:25;99870.0;;;-6.2;93.1
28456;BME280;15682;56.742;38.866;2022-11-20T00:32:25;99870.0;;;-6.3;93.1
28456;BME280;15682;56.742;38.866;2022-11-20T00:34:25;99870.0;;;-6.3;93.1
28456;BME280;15682;56.742;38.866;2022-11-20T00:36:27;99870.0;;;-6.3;93.1
28456;BME280;15682;56.742;38.866;2022-11-20T00:38:24;99870.0;;;-6.3;93.0
28456;BME280;15682;56.742;38.866;2022-11-20T00:40:24;99870.0;;;-6.2;93.0
28456;BME280;15682;56.742;38.866;2022-11-20T00:42:24;99870.0;;;-6.1;93.0
28456;BME280;15682;56.742;38.866;2022-11-20T00:44:24;99870.0;;;-6.1;93.0
28456;BME280;15682;56.742;38.866;2022-11-20T00:46:25;99870.0;;;-6.1;93.0
28456;BME280;15682;56.742;38.866;2022-11-20T00:48:23;99870.0;;;-6.2;92.6
28456;BME280;15682;56.742;38.866;2022-11-20T00:50:23;99870.0;;;-6.3;92.4
28456;BME280;15682;56.742;38.866;2022-11-20T00:52:23;99870.0;;;-6.3;92.4
28456;BME280;15682;56.742;38.866;2022-11-20T00:54:23;99870.0;;;-6.4;92.4
28456;BME280;15682;56.742;38.866;2022-11-20T00:56:22;99870.0;;;-6.4;92.4
28456;BME280;15682;56.742;38.866;2022-11-20T00:58:23;99860.0;;;-6.4;92.8
28456;BME280;15682;56.742;38.866;2022-11-20T01:00:22;99860.0;;;-6.4;92.8
28456;BME280;15682;56.742;38.866;2022-11-20T01:02:22;99860.0;;;-6.4;92.8
28456;BME280;15682;56.742;38.866;2022-11-20T01:04:21;99860.0;;;-6.4;92.8
28456;BME280;15682;56.742;38.866;2022-11-20T01:06:23;99860.0;;;-6.5;92.8
28456;BME280;15682;56.742;38.866;2022-11-20T01:08:21;99860.0;;;-6.5;92.8
28456;BME280;15682;56.742;38.866;2022-11-20T01:10:21;99860.0;;;-6.5;92.8
28456;BME280;15682;56.742;38.866;2022-11-20T01:12:21;99860.0;;;-6.4;92.8
28456;BME280;15682;56.742;38.866;2022-11-20T01:14:20;99860.0;;;-6.5;92.8
28456;BME280;15682;56.742;38.866;2022-11-20T01:16:22;99860.0;;;-6.5;93.0
28456;BME280;15682;56.742;38.866;2022-11-20T01:18:20;99850.0;;;-6.5;92.8
28456;BME280;15682;56.742;38.866;2022-11-20T01:20:20;99840.0;;;-6.5;92.8
28456;BME280;15682;56.742;38.866;2022-11-20T01:22:19;99840.0;;;-6.5;92.8
28456;BME280;15682;56.742;38.866;2022-11-20T01:24:21;99850.0;;;-6.5;92.4
28456;BME280;15682;56.742;38.866;2022-11-20T01:26:20;99850.0;;;-6.5;92.4
28456;BME280;15682;56.742;38.866;2022-11-20T01:28:19;99850.0;;;-6.5;92.2
28456;BME280;15682;56.742;38.866;2022-11-20T01:30:18;99850.0;;;-6.5;92.2
28456;BME280;15682;56.742;38.866;2022-11-20T01:32:18;99850.0;;;-6.5;92.2
28456;BME280;15682;56.742;38.866;2022-11-20T01:34:20;99850.0;;;-6.5;92.2
28456;BME280;15682;56.742;38.866;2022-11-20T01:36:20;99850.0;;;-6.5;92.2
28456;BME280;15682;56.742;38.866;2022-11-20T01:38:18;99850.0;;;-6.5;91.8
28456;BME280;15682;56.742;38.866;2022-11-20T01:40:17;99850.0;;;-6.5;91.8
28456;BME280;15682;56.742;38.866;2022-11-20T01:42:17;99840.0;;;-6.5;91.8
28456;BME280;15682;56.742;38.866;2022-11-20T01:44:19;99840.0;;;-6.5;91.8
28456;BME280;15682;56.742;38.866;2022-11-20T01:46:18;99840.0;;;-6.5;91.8
28456;BME280;15682;56.742;38.866;2022-11-20T01:48:17;99840.0;;;-6.6;91.5
28456;BME280;15682;56.742;38.866;2022-11-20T01:50:19;99840.0;;;-6.6;91.5
28456;BME280;15682;56.742;38.866;2022-11-20T01:52:18;99850.0;;;-6.6;91.5
28456;BME280;15682;56.742;38.866;2022-11-20T01:54:19;99850.0;;;-6.6;91.5
28456;BME280;15682;56.742;38.866;2022-11-20T01:56:16;99850.0;;;-6.6;91.5
28456;BME280;15682;56.742;38.866;2022-11-20T01:58:16;99850.0;;;-6.6;91.5
28456;BME280;15682;56.742;38.866;2022-11-20T02:00:17;99850.0;;;-6.6;91.3
28456;BME280;15682;56.742;38.866;2022-11-20T02:02:15;99850.0;;;-6.6;91.3
28456;BME280;15682;56.742;38.866;2022-11-20T02:04:15;99850.0;;;-6.6;91.3
28456;BME280;15682;56.742;38.866;2022-11-20T02:06:19;99850.0;;;-6.6;91.3
28456;BME280;15682;56.742;38.866;2022-11-20T02:08:15;99850.0;;;-6.7;91.4
28456;BME280;15682;56.742;38.866;2022-11-20T02:10:14;99850.0;;;-6.5;91.4
28456;BME280;15682;56.742;38.866;2022-11-20T02:12:14;99850.0;;;-6.8;91.4
28456;BME280;15682;56.742;38.866;2022-11-20T02:14:14;99850.0;;;-6.8;91.9
28456;BME280;15682;56.742;38.866;2022-11-20T02:16:19;99850.0;;;-6.8;91.9
28456;BME280;15682;56.742;38.866;2022-11-20T02:18:16;99850.0;;;-6.8;91.8
28456;BME280;15682;56.742;38.866;2022-11-20T02:20:13;99850.0;;;-6.8;91.8
28456;BME280;15682;56.742;38.866;2022-11-20T02:22:17;99850.0;;;-6.8;91.8
28456;BME280;15682;56.742;38.866;2022-11-20T02:24:14;99850.0;;;-6.9;91.8
28456;BME280;15682;56.742;38.866;2022-11-20T02:26:14;99850.0;;;-6.9;91.8
28456;BME280;15682;56.742;38.866;2022-11-20T02:28:13;99850.0;;;-6.8;92.3
28456;BME280;15682;56.742;38.866;2022-11-20T02:30:12;99850.0;;;-6.8;92.3
28456;BME280;15682;56.742;38.866;2022-11-20T02:32:19;99850.0;;;-6.9;92.3
28456;BME280;15682;56.742;38.866;2022-11-20T02:34:11;99850.0;;;-6.9;92.3
28456;BME280;15682;56.742;38.866;2022-11-20T02:36:15;99850.0;;;-6.9;92.3
28456;BME280;15682;56.742;38.866;2022-11-20T02:38:11;99850.0;;;-6.9;91.8
28456;BME280;15682;56.742;38.866;2022-11-20T02:40:11;99850.0;;;-6.9;91.8
28456;BME280;15682;56.742;38.866;2022-11-20T02:42:11;99850.0;;;-7.0;91.8
28456;BME280;15682;56.742;38.866;2022-11-20T02:44:10;99850.0;;;-7.0;91.8
28456;BME280;15682;56.742;38.866;2022-11-20T02:46:10;99850.0;;;-7.0;91.8
28456;BME280;15682;56.742;38.866;2022-11-20T02:48:10;99850.0;;;-7.1;91.9
28456;BME280;15682;56.742;38.866;2022-11-20T02:50:10;99850.0;;;-7.1;91.9
28456;BME280;15682;56.742;38.866;2022-11-20T02:52:09;99850.0;;;-7.1;91.9
28456;BME280;15682;56.742;38.866;2022-11-20T02:54:09;99850.0;;;-7.1;91.9
28456;BME280;15682;56.742;38.866;2022-11-20T02:56:09;99850.0;;;-7.1;92.4
28456;BME280;15682;56.742;38.866;2022-11-20T02:58:09;99850.0;;;-7.0;92.2
28456;BME280;15682;56.742;38.866;2022-11-20T03:00:10;99850.0;;;-7.2;92.2
28456;BME280;15682;56.742;38.866;2022-11-20T03:02:08;99850.0;;;-7.2;92.2
28456;BME280;15682;56.742;38.866;2022-11-20T03:04:08;99850.0;;;-7.2;92.2
28456;BME280;15682;56.742;38.866;2022-11-20T03:06:08;99850.0;;;-7.2;92.2
28456;BME280;15682;56.742;38.866;2022-11-20T03:08:08;99850.0;;;-7.1;92.6
28456;BME280;15682;56.742;38.866;2022-11-20T03:10:08;99850.0;;;-7.1;92.6
28456;BME280;15682;56.742;38.866;2022-11-20T03:12:07;99850.0;;;-7.1;92.6
28456;BME280;15682;56.742;38.866;2022-11-20T03:14:07;99860.0;;;-7.1;92.6
28456;BME280;15682;56.742;38.866;2022-11-20T03:16:10;99860.0;;;-7.1;92.6
28456;BME280;15682;56.742;38.866;2022-11-20T03:18:06;99860.0;;;-7.1;92.7
28456;BME280;15682;56.742;38.866;2022-11-20T03:20:08;99860.0;;;-7.1;92.7
28456;BME280;15682;56.742;38.866;2022-11-20T03:22:06;99860.0;;;-7.1;92.7
28456;BME280;15682;56.742;38.866;2022-11-20T03:24:07;99860.0;;;-7.1;92.7
28456;BME280;15682;56.742;38.866;2022-11-20T03:26:09;99860.0;;;-7.1;92.7
28456;BME280;15682;56.742;38.866;2022-11-20T03:28:05;99860.0;;;-7.1;92.7
28456;BME280;15682;56.742;38.866;2022-11-20T03:30:06;99860.0;;;-7.1;92.7
28456;BME280;15682;56.742;38.866;2022-11-20T03:32:05;99860.0;;;-7.1;92.7
28456;BME280;15682;56.742;38.866;2022-11-20T03:34:05;99860.0;;;-7.0;92.7
28456;BME280;15682;56.742;38.866;2022-11-20T03:36:07;99860.0;;;-7.0;92.7
28456;BME280;15682;56.742;38.866;2022-11-20T03:38:04;99860.0;;;-7.1;92.1
28456;BME280;15682;56.742;38.866;2022-11-20T03:40:05;99860.0;;;-7.1;92.1
28456;BME280;15682;56.742;38.866;2022-11-20T03:42:04;99870.0;;;-7.1;91.8
28456;BME280;15682;56.742;38.866;2022-11-20T03:44:07;99870.0;;;-7.2;91.8
28456;BME280;15682;56.742;38.866;2022-11-20T03:46:04;99870.0;;;-7.2;91.8
28456;BME280;15682;56.742;38.866;2022-11-20T03:48:04;99880.0;;;-7.2;92.1
28456;BME280;15682;56.742;38.866;2022-11-20T03:50:03;99880.0;;;-7.1;92.1
28456;BME280;15682;56.742;38.866;2022-11-20T03:52:03;99880.0;;;-7.1;92.1
28456;BME280;15682;56.742;38.866;2022-11-20T03:54:05;99880.0;;;-7.1;92.1
28456;BME280;15682;56.742;38.866;2022-11-20T03:56:03;99880.0;;;-7.1;92.1
28456;BME280;15682;56.742;38.866;2022-11-20T03:58:02;99880.0;;;-7.1;92.1
28456;BME280;15682;56.742;38.866;2022-11-20T04:00:03;99880.0;;;-7.1;92.1
28456;BME280;15682;56.742;38.866;2022-11-20T04:02:01;99880.0;;;-7.2;92.5
28456;BME280;15682;56.742;38.866;2022-11-20T04:04:01;99870.0;;;-7.1;92.5
28456;BME280;15682;56.742;38.866;2022-11-20T04:06:03;99870.0;;;-7.1;92.5
28456;BME280;15682;56.742;38.866;2022-11-20T04:08:01;99870.0;;;-7.0;92.0
28456;BME280;15682;56.742;38.866;2022-11-20T04:10:00;99870.0;;;-7.0;92.0
28456;BME280;15682;56.742;38.866;2022-11-20T04:12:00;99870.0;;;-6.9;91.8
28456;BME280;15682;56.742;38.866;2022-11-20T04:14:02;99870.0;;;-7.0;91.8
28456;BME280;15682;56.742;38.866;2022-11-20T04:16:00;99870.0;;;-7.0;92.5
28456;BME280;15682;56.742;38.866;2022-11-20T04:18:00;99870.0;;;-7.0;92.6
28456;BME280;15682;56.742;38.866;2022-11-20T04:19:59;99870.0;;;-7.0;92.6
28456;BME280;15682;56.742;38.866;2022-11-20T04:21:59;99870.0;;;-7.0;92.6
28456;BME280;15682;56.742;38.866;2022-11-20T04:23:59;99870.0;;;-7.0;92.6
28456;BME280;15682;56.742;38.866;2022-11-20T04:26:02;99870.0;;;-7.2;92.6
28456;BME280;15682;56.742;38.866;2022-11-20T04:27:58;99870.0;;;-7.2;92.7
28456;BME280;15682;56.742;38.866;2022-11-20T04:29:58;99870.0;;;-7.2;92.7
28456;BME280;15682;56.742;38.866;2022-11-20T04:31:58;99870.0;;;-7.2;93.0
28456;BME280;15682;56.742;38.866;2022-11-20T04:33:59;99870.0;;;-7.0;92.4
28456;BME280;15682;56.742;38.866;2022-11-20T04:36:01;99870.0;;;-7.0;92.4
28456;BME280;15682;56.742;38.866;2022-11-20T04:37:57;99880.0;;;-6.9;92.5
28456;BME280;15682;56.742;38.866;2022-11-20T04:39:57;99890.0;;;-7.0;92.5
28456;BME280;15682;56.742;38.866;2022-11-20T04:41:57;99890.0;;;-7.0;92.5
28456;BME280;15682;56.742;38.866;2022-11-20T04:43:59;99890.0;;;-7.0;92.5
28456;BME280;15682;56.742;38.866;2022-11-20T04:45:58;99890.0;;;-7.0;92.5
28456;BME280;15682;56.742;38.866;2022-11-20T04:47:56;99890.0;;;-7.1;92.8
28456;BME280;15682;56.742;38.866;2022-11-20T04:49:56;99890.0;;;-6.9;92.8
28456;BME280;15682;56.742;38.866;2022-11-20T04:51:56;99890.0;;;-6.9;92.8
28456;BME280;15682;56.742;38.866;2022-11-20T04:53:56;99890.0;;;-7.1;92.8
28456;BME280;15682;56.742;38.866;2022-11-20T04:55:59;99890.0;;;-7.0;92.8
28456;BME280;15682;56.742;38.866;2022-11-20T04:57:55;99890.0;;;-6.9;92.5
28456;BME280;15682;56.742;38.866;2022-11-20T04:59:55;99890.0;;;-6.9;92.5
28456;BME280;15682;56.742;38.866;2022-11-20T05:01:55;99890.0;;;-6.9;92.5
28456;BME280;15682;56.742;38.866;2022-11-20T05:03:55;99890.0;;;-7.1;93.0
28456;BME280;15682;56.742;38.866;2022-11-20T05:05:54;99900.0;;;-6.9;93.0
28456;BME280;15682;56.742;38.866;2022-11-20T05:07:56;99900.0;;;-6.9;92.7
28456;BME280;15682;56.742;38.866;2022-11-20T05:09:54;99900.0;;;-7.0;92.7
28456;BME280;15682;56.742;38.866;2022-11-20T05:11:54;99900.0;;;-7.0;92.4
28456;BME280;15682;56.742;38.866;2022-11-20T05:13:53;99900.0;;;-7.0;92.4
28456;BME280;15682;56.742;38.866;2022-11-20T05:15:53;99900.0;;;-7.0;93.0
28456;BME280;15682;56.742;38.866;2022-11-20T05:17:53;99900.0;;;-7.1;93.0
28456;BME280;15682;56.742;38.866;2022-11-20T05:19:53;99900.0;;;-7.1;93.0
28456;BME280;15682;56.742;38.866;2022-11-20T05:21:53;99900.0;;;-7.1;93.0
28456;BME280;15682;56.742;38.866;2022-11-20T05:23:53;99900.0;;;-7.0;93.0
28456;BME280;15682;56.742;38.866;2022-11-20T05:25:53;99900.0;;;-7.0;93.0
28456;BME280;15682;56.742;38.866;2022-11-20T05:27:53;99900.0;;;-7.1;93.0
28456;BME280;15682;56.742;38.866;2022-11-20T05:29:52;99900.0;;;-7.1;93.0
28456;BME280;15682;56.742;38.866;2022-11-20T05:31:51;99900.0;;;-6.8;93.0
28456;BME280;15682;56.742;38.866;2022-11-20T05:33:51;99900.0;;;-6.8;92.3
28456;BME280;15682;56.742;38.866;2022-11-20T05:35:51;99910.0;;;-6.8;92.3
28456;BME280;15682;56.742;38.866;2022-11-20T05:37:51;99910.0;;;-6.8;92.4
28456;BME280;15682;56.742;38.866;2022-11-20T05:39:51;99910.0;;;-6.8;92.4
28456;BME280;15682;56.742;38.866;2022-11-20T05:41:50;99920.0;;;-6.8;92.4
28456;BME280;15682;56.742;38.866;2022-11-20T05:43:50;99920.0;;;-6.8;92.4
28456;BME280;15682;56.742;38.866;2022-11-20T05:45:53;99920.0;;;-6.8;92.4
28456;BME280;15682;56.742;38.866;2022-11-20T05:47:50;99920.0;;;-7.0;92.9
28456;BME280;15682;56.742;38.866;2022-11-20T05:49:49;99920.0;;;-7.0;92.9
28456;BME280;15682;56.742;38.866;2022-11-20T05:51:49;99920.0;;;-6.9;92.9
28456;BME280;15682;56.742;38.866;2022-11-20T05:53:49;99920.0;;;-6.9;92.9
28456;BME280;15682;56.742;38.866;2022-11-20T05:55:56;99920.0;;;-6.9;92.9
28456;BME280;15682;56.742;38.866;2022-11-20T05:57:48;99920.0;;;-7.0;92.8
28456;BME280;15682;56.742;38.866;2022-11-20T05:59:48;99920.0;;;-7.0;92.8
28456;BME280;15682;56.742;38.866;2022-11-20T06:01:48;99920.0;;;-7.1;92.8
28456;BME280;15682;56.742;38.866;2022-11-20T06:03:48;99920.0;;;-6.9;93.4
28456;BME280;15682;56.742;38.866;2022-11-20T06:05:48;99920.0;;;-6.8;93.4
28456;BME280;15682;56.742;38.866;2022-11-20T06:07:47;99920.0;;;-6.7;92.7
28456;BME280;15682;56.742;38.866;2022-11-20T06:09:47;99920.0;;;-6.7;92.7
28456;BME280;15682;56.742;38.866;2022-11-20T06:11:47;99920.0;;;-6.7;92.7
28456;BME280;15682;56.742;38.866;2022-11-20T06:13:47;99920.0;;;-6.7;92.7
28456;BME280;15682;56.742;38.866;2022-11-20T06:15:48;99920.0;;;-6.7;92.7
28456;BME280;15682;56.742;38.866;2022-11-20T06:17:46;99920.0;;;-6.8;93.0
28456;BME280;15682;56.742;38.866;2022-11-20T06:19:46;99930.0;;;-6.8;93.3
28456;BME280;15682;56.742;38.866;2022-11-20T06:21:47;99930.0;;;-6.8;93.3
28456;BME280;15682;56.742;38.866;2022-11-20T06:23:46;99930.0;;;-6.6;92.6
28456;BME280;15682;56.742;38.866;2022-11-20T06:25:45;99930.0;;;-6.5;92.6
28456;BME280;15682;56.742;38.866;2022-11-20T06:27:45;99930.0;;;-6.7;92.0
28456;BME280;15682;56.742;38.866;2022-11-20T06:29:45;99930.0;;;-6.7;92.6
28456;BME280;15682;56.742;38.866;2022-11-20T06:31:45;99930.0;;;-6.7;92.6
28456;BME280;15682;56.742;38.866;2022-11-20T06:33:45;99930.0;;;-6.7;92.6
28456;BME280;15682;56.742;38.866;2022-11-20T06:35:44;99940.0;;;-6.7;92.6
28456;BME280;15682;56.742;38.866;2022-11-20T06:37:44;99940.0;;;-6.6;92.5
28456;BME280;15682;56.742;38.866;2022-11-20T06:39:44;99940.0;;;-6.6;92.5
28456;BME280;15682;56.742;38.866;2022-11-20T06:41:44;99940.0;;;-6.4;92.5
28456;BME280;15682;56.742;38.866;2022-11-20T06:43:43;99950.0;;;-6.4;92.1
28456;BME280;15682;56.742;38.866;2022-11-20T06:45:43;99950.0;;;-6.4;92.1
28456;BME280;15682;56.742;38.866;2022-11-20T06:47:43;99950.0;;;-6.5;92.5
28456;BME280;15682;56.742;38.866;2022-11-20T06:49:43;99950.0;;;-6.5;92.6
28456;BME280;15682;56.742;38.866;2022-11-20T06:51:43;99950.0;;;-6.7;92.6
28456;BME280;15682;56.742;38.866;2022-11-20T06:53:43;99950.0;;;-6.7;93.3
28456;BME280;15682;56.742;38.866;2022-11-20T06:55:43;99960.0;;;-6.6;93.3
28456;BME280;15682;56.742;38.866;2022-11-20T06:57:42;99960.0;;;-6.5;93.2
28456;BME280;15682;56.742;38.866;2022-11-20T06:59:42;99960.0;;;-6.5;93.2
28456;BME280;15682;56.742;38.866;2022-11-20T07:01:41;99960.0;;;-6.5;93.2
28456;BME280;15682;56.742;38.866;2022-11-20T07:03:42;99960.0;;;-6.5;94.0
28456;BME280;15682;56.742;38.866;2022-11-20T07:05:41;99970.0;;;-6.4;94.0
28456;BME280;15682;56.742;38.866;2022-11-20T07:07:41;99970.0;;;-6.5;93.6
28456;BME280;15682;56.742;38.866;2022-11-20T07:09:41;99970.0;;;-6.6;93.6
28456;BME280;15682;56.742;38.866;2022-11-20T07:11:40;99970.0;;;-6.5;93.6
28456;BME280;15682;56.742;38.866;2022-11-20T07:13:40;99970.0;;;-6.3;93.6
28456;BME280;15682;56.742;38.866;2022-11-20T07:15:40;99970.0;;;-6.3;93.6
28456;BME280;15682;56.742;38.866;2022-11-20T07:17:40;99970.0;;;-6.4;93.8
28456;BME280;15682;56.742;38.866;2022-11-20T07:19:40;99970.0;;;-6.4;93.8
28456;BME280;15682;56.742;38.866;2022-11-20T07:21:39;99970.0;;;-6.5;93.8
28456;BME280;15682;56.742;38.866;2022-11-20T07:23:39;99970.0;;;-6.5;94.6
28456;BME280;15682;56.742;38.866;2022-11-20T07:25:39;99970.0;;;-6.3;94.6
28456;BME280;15682;56.742;38.866;2022-11-20T07:27:39;99970.0;;;-6.4;93.9
28456;BME280;15682;56.742;38.866;2022-11-20T07:29:39;99970.0;;;-6.4;94.5
28456;BME280;15682;56.742;38.866;2022-11-20T07:31:38;99980.0;;;-6.4;94.5
28456;BME280;15682;56.742;38.866;2022-11-20T07:33:38;99980.0;;;-6.4;94.5
28456;BME280;15682;56.742;38.866;2022-11-20T07:35:38;99980.0;;;-6.5;94.5
28456;BME280;15682;56.742;38.866;2022-11-20T07:37:38;99980.0;;;-6.4;94.8
28456;BME280;15682;56.742;38.866;2022-11-20T07:39:38;99980.0;;;-6.5;94.8
28456;BME280;15682;56.742;38.866;2022-11-20T07:41:37;99980.0;;;-6.3;94.8
28456;BME280;15682;56.742;38.866;2022-11-20T07:43:37;99980.0;;;-6.3;94.8
28456;BME280;15682;56.742;38.866;2022-11-20T07:45:37;99980.0;;;-6.3;94.8
28456;BME280;15682;56.742;38.866;2022-11-20T07:47:37;99980.0;;;-6.1;94.6
28456;BME280;15682;56.742;38.866;2022-11-20T07:49:37;99980.0;;;-6.0;94.4
28456;BME280;15682;56.742;38.866;2022-11-20T07:51:36;99980.0;;;-6.0;94.4
28456;BME280;15682;56.742;38.866;2022-11-20T07:53:36;99980.0;;;-5.9;94.0
28456;BME280;15682;56.742;38.866;2022-11-20T07:55:36;99980.0;;;-6.0;94.0
28456;BME280;15682;56.742;38.866;2022-11-20T07:57:36;99980.0;;;-6.1;93.8
28456;BME280;15682;56.742;38.866;2022-11-20T07:59:36;99980.0;;;-6.2;93.8
28456;BME280;15682;56.742;38.866;2022-11-20T08:01:35;99980.0;;;-6.2;93.8
28456;BME280;15682;56.742;38.866;2022-11-20T08:03:35;99980.0;;;-6.3;94.6
28456;BME280;15682;56.742;38.866;2022-11-20T08:05:35;99980.0;;;-6.3;94.6
28456;BME280;15682;56.742;38.866;2022-11-20T08:07:36;99980.0;;;-6.3;95.2
28456;BME280;15682;56.742;38.866;2022-11-20T08:09:35;99980.0;;;-6.3;95.2
28456;BME280;15682;56.742;38.866;2022-11-20T08:11:35;99980.0;;;-6.0;95.2
28456;BME280;15682;56.742;38.866;2022-11-20T08:13:34;99980.0;;;-6.2;94.4
28456;BME280;15682;56.742;38.866;2022-11-20T08:15:35;99980.0;;;-6.0;94.4
28456;BME280;15682;56.742;38.866;2022-11-20T08:17:34;99980.0;;;-5.9;94.9
28456;BME280;15682;56.742;38.866;2022-11-20T08:19:34;99980.0;;;-6.1;93.7
28456;BME280;15682;56.742;38.866;2022-11-20T08:21:34;99980.0;;;-6.2;94.4
28456;BME280;15682;56.742;38.866;2022-11-20T08:23:33;99980.0;;;-6.2;94.4
28456;BME280;15682;56.742;38.866;2022-11-20T08:25:34;99980.0;;;-6.4;94.4
28456;BME280;15682;56.742;38.866;2022-11-20T08:27:33;99980.0;;;-6.4;95.0
28456;BME280;15682;56.742;38.866;2022-11-20T08:29:33;99980.0;;;-6.2;95.0
28456;BME280;15682;56.742;38.866;2022-11-20T08:31:33;99980.0;;;-6.2;95.0
28456;BME280;15682;56.742;38.866;2022-11-20T08:33:32;99980.0;;;-6.2;95.0
28456;BME280;15682;56.742;38.866;2022-11-20T08:35:33;99980.0;;;-6.1;95.0
28456;BME280;15682;56.742;38.866;2022-11-20T08:37:32;99980.0;;;-6.0;95.4
28456;BME280;15682;56.742;38.866;2022-11-20T08:39:32;99980.0;;;-6.3;94.0
28456;BME280;15682;56.742;38.866;2022-11-20T08:41:32;99980.0;;;-6.3;94.7
28456;BME280;15682;56.742;38.866;2022-11-20T08:43:31;99980.0;;;-6.2;94.7
28456;BME280;15682;56.742;38.866;2022-11-20T08:45:31;99980.0;;;-6.3;94.7
28456;BME280;15682;56.742;38.866;2022-11-20T08:47:31;99980.0;;;-6.2;95.3
28456;BME280;15682;56.742;38.866;2022-11-20T08:49:31;99980.0;;;-6.2;95.3
28456;BME280;15682;56.742;38.866;2022-11-20T08:51:31;99980.0;;;-6.3;95.3
28456;BME280;15682;56.742;38.866;2022-11-20T08:53:30;99980.0;;;-6.4;95.3
28456;BME280;15682;56.742;38.866;2022-11-20T08:55:30;99980.0;;;-6.4;95.3
28456;BME280;15682;56.742;38.866;2022-11-20T08:57:31;99980.0;;;-6.2;95.3
28456;BME280;15682;56.742;38.866;2022-11-20T08:59:30;99980.0;;;-6.2;94.6
28456;BME280;15682;56.742;38.866;2022-11-20T09:01:30;99980.0;;;-6.2;94.6
28456;BME280;15682;56.742;38.866;2022-11-20T09:03:29;99980.0;;;-6.0;95.8
28456;BME280;15682;56.742;38.866;2022-11-20T09:05:29;99990.0;;;-6.0;94.7
28456;BME280;15682;56.742;38.866;2022-11-20T09:07:29;99990.0;;;-5.8;94.4
28456;BME280;15682;56.742;38.866;2022-11-20T09:09:29;100000.0;;;-5.9;93.7
28456;BME280;15682;56.742;38.866;2022-11-20T09:11:29;100010.0;;;-5.9;93.7
28456;BME280;15682;56.742;38.866;2022-11-20T09:13:29;100010.0;;;-5.9;93.7
28456;BME280;15682;56.742;38.866;2022-11-20T09:15:28;100010.0;;;-5.7;93.5
28456;BME280;15682;56.742;38.866;2022-11-20T09:17:28;100010.0;;;-5.9;93.4
28456;BME280;15682;56.742;38.866;2022-11-20T09:19:28;100010.0;;;-5.9;93.4
28456;BME280;15682;56.742;38.866;2022-11-20T09:21:28;100010.0;;;-5.8;93.4
28456;BME280;15682;56.742;38.866;2022-11-20T09:23:31;100010.0;;;-5.9;93.4
28456;BME280;15682;56.742;38.866;2022-11-20T09:25:27;100010.0;;;-5.8;93.4
28456;BME280;15682;56.742;38.866;2022-11-20T09:27:27;100000.0;;;-5.7;93.4
28456;BME280;15682;56.742;38.866;2022-11-20T09:29:27;100000.0;;;-5.9;92.9
28456;BME280;15682;56.742;38.866;2022-11-20T09:31:27;100000.0;;;-5.9;93.5
28456;BME280;15682;56.742;38.866;2022-11-20T09:33:27;100000.0;;;-5.9;93.5
28456;BME280;15682;56.742;38.866;2022-11-20T09:35:26;99990.0;;;-5.9;93.5
28456;BME280;15682;56.742;38.866;2022-11-20T09:37:26;99990.0;;;-5.9;93.7
28456;BME280;15682;56.742;38.866;2022-11-20T09:39:26;99990.0;;;-5.7;92.8
28456;BME280;15682;56.742;38.866;2022-11-20T09:41:41;99990.0;;;-5.9;92.8
28456;BME280;15682;56.742;38.866;2022-11-20T09:43:37;99990.0;;;-5.7;92.8
28456;BME280;15682;56.742;38.866;2022-11-20T09:45:37;100000.0;;;-5.7;92.8
28456;BME280;15682;56.742;38.866;2022-11-20T09:47:33;100010.0;;;-5.6;92.7
28456;BME280;15682;56.742;38.866;2022-11-20T09:49:32;100010.0;;;-5.6;92.6
28456;BME280;15682;56.742;38.866;2022-11-20T09:51:35;100010.0;;;-5.4;92.6
28456;BME280;15682;56.742;38.866;2022-11-20T09:53:33;100010.0;;;-5.4;92.6
28456;BME280;15682;56.742;38.866;2022-11-20T09:55:25;100010.0;;;-5.4;92.6
28456;BME280;15682;56.742;38.866;2022-11-20T09:57:28;100010.0;;;-5.3;91.4
28456;BME280;15682;56.742;38.866;2022-11-20T09:59:32;100010.0;;;-5.3;91.4
28456;BME280;15682;56.742;38.866;2022-11-20T10:01:29;100010.0;;;-5.3;91.4
28456;BME280;15682;56.742;38.866;2022-11-20T10:03:35;100010.0;;;-5.4;91.4
28456;BME280;15682;56.742;38.866;2022-11-20T10:05:28;100010.0;;;-5.5;91.4
28456;BME280;15682;56.742;38.866;2022-11-20T10:07:29;100020.0;;;-5.5;91.9
28456;BME280;15682;56.742;38.866;2022-11-20T10:09:29;100030.0;;;-5.4;92.7
28456;BME280;15682;56.742;38.866;2022-11-20T10:11:30;100040.0;;;-5.4;92.0
28456;BME280;15682;56.742;38.866;2022-11-20T10:13:34;100040.0;;;-5.2;92.0
28456;BME280;15682;56.742;38.866;2022-11-20T10:15:33;100040.0;;;-5.1;92.0
28456;BME280;15682;56.742;38.866;2022-11-20T10:17:30;100040.0;;;-5.2;91.5
28456;BME280;15682;56.742;38.866;2022-11-20T10:19:35;100040.0;;;-5.2;91.5
28456;BME280;15682;56.742;38.866;2022-11-20T10:21:29;100040.0;;;-5.2;92.2
28456;BME280;15682;56.742;38.866;2022-11-20T10:23:34;100050.0;;;-5.2;92.2
28456;BME280;15682;56.742;38.866;2022-11-20T10:25:38;100050.0;;;-5.2;91.5
28456;BME280;15682;56.742;38.866;2022-11-20T10:27:39;100050.0;;;-5.2;91.2
28456;BME280;15682;56.742;38.866;2022-11-20T10:29:29;100050.0;;;-5.2;92.1
28456;BME280;15682;56.742;38.866;2022-11-20T10:31:29;100060.0;;;-5.2;92.1
28456;BME280;15682;56.742;38.866;2022-11-20T10:33:23;100060.0;;;-5.1;92.1
28456;BME280;15682;56.742;38.866;2022-11-20T10:35:23;100060.0;;;-5.1;91.0
28456;BME280;15682;56.742;38.866;2022-11-20T10:37:24;100060.0;;;-4.9;91.4
28456;BME280;15682;56.742;38.866;2022-11-20T10:39:28;100060.0;;;-4.9;90.5
28456;BME280;15682;56.742;38.866;2022-11-20T10:41:24;100060.0;;;-4.9;90.5
28456;BME280;15682;56.742;38.866;2022-11-20T10:43:27;100070.0;;;-4.9;90.5
28456;BME280;15682;56.742;38.866;2022-11-20T10:45:31;100070.0;;;-4.9;90.5
28456;BME280;15682;56.742;38.866;2022-11-20T10:47:20;100080.0;;;-4.8;90.2
28456;BME280;15682;56.742;38.866;2022-11-20T10:49:20;100080.0;;;-4.8;90.2